createdAt,value
2019-05-20T00:01:51.945Z,84.60
2019-05-20T00:06:55.372Z,84.78
2019-05-20T00:11:58.801Z,84.52
2019-05-20T00:17:02.247Z,84.21
2019-05-20T00:22:05.695Z,84.96
2019-05-20T00:27:09.145Z,84.25
2019-05-20T00:32:12.586Z,87.37
2019-05-20T00:37:16.894Z,85.60
2019-05-20T00:42:20.429Z,85.26
2019-05-20T00:47:23.866Z,86.08
2019-05-20T00:52:27.398Z,86.31
2019-05-20T00:57:30.829Z,87.82
2019-05-20T01:02:34.259Z,87.43
2019-05-20T01:07:37.691Z,86.09
2019-05-20T01:12:41.130Z,85.98
2019-05-20T01:17:44.565Z,85.28
2019-05-20T01:22:48.007Z,85.15
2019-05-20T01:27:51.421Z,85.23
2019-05-20T01:32:54.859Z,85.43
2019-05-20T01:37:58.288Z,85.49
2019-05-20T01:43:01.720Z,84.28
2019-05-20T01:48:05.250Z,83.63
2019-05-20T01:53:08.755Z,84.36
2019-05-20T01:58:12.188Z,89.57
2019-05-20T02:03:30.209Z,88.40
2019-05-20T02:08:20.789Z,87.38
2019-05-20T02:13:25.842Z,88.46
2019-05-20T02:18:29.277Z,86.42
2019-05-20T02:23:32.690Z,87.03
2019-05-20T02:28:36.101Z,89.27
2019-05-20T02:33:51.171Z,87.14
2019-05-20T02:38:44.688Z,89.52
2019-05-20T02:43:48.281Z,90.37
2019-05-20T02:48:51.723Z,88.07
2019-05-20T02:53:55.170Z,86.83
2019-05-20T02:58:58.947Z,87.75
2019-05-20T03:04:11.508Z,87.39
2019-05-20T03:09:11.901Z,86.82
2019-05-20T03:14:13.148Z,87.57
2019-05-20T03:19:16.573Z,86.36
2019-05-20T03:24:20.023Z,85.75
2019-05-20T03:29:23.461Z,86.30
2019-05-20T03:34:45.754Z,87.72
2019-05-20T03:39:32.080Z,87.65
2019-05-20T03:44:35.517Z,88.30
2019-05-20T03:49:38.971Z,88.83
2019-05-20T03:54:42.376Z,88.11
2019-05-20T03:59:45.814Z,87.15
2019-05-20T04:05:01.440Z,89.10
2019-05-20T04:09:54.408Z,89.09
2019-05-20T04:14:57.833Z,88.95
2019-05-20T04:20:01.273Z,87.03
2019-05-20T04:25:06.118Z,90.64
2019-05-20T04:30:09.915Z,89.15
2019-05-20T04:35:22.429Z,88.90
2019-05-20T04:40:18.898Z,90.85
2019-05-20T04:45:22.324Z,89.05
2019-05-20T04:50:25.731Z,90.61
2019-05-20T04:55:29.181Z,92.39
2019-05-20T05:00:50.539Z,92.65
2019-05-20T05:05:54.466Z,94.18
2019-05-20T05:10:57.945Z,93.73
2019-05-20T05:16:01.378Z,95.28
2019-05-20T05:21:04.868Z,93.74
2019-05-20T05:26:08.374Z,92.26
2019-05-20T05:31:11.826Z,91.52
2019-05-20T05:36:15.250Z,93.67
2019-05-20T05:41:18.670Z,91.41
2019-05-20T05:46:22.084Z,93.92
2019-05-20T05:51:37.778Z,99.99
2019-05-20T05:56:41.226Z,98.03
2019-05-20T06:01:44.655Z,97.87
2019-05-20T06:06:48.084Z,98.35
2019-05-20T06:11:51.528Z,97.44
2019-05-20T06:16:54.946Z,97.05
2019-05-20T06:21:58.397Z,97.88
2019-05-20T06:27:01.827Z,96.06
2019-05-20T06:32:05.297Z,96.78
2019-05-20T06:37:19.573Z,98.05
2019-05-20T06:42:23.098Z,97.57
2019-05-20T06:47:26.526Z,95.03
2019-05-20T06:52:35.804Z,96.20
2019-05-20T06:57:35.069Z,95.20
2019-05-20T07:02:38.578Z,93.01
2019-05-20T07:07:42.051Z,95.99
2019-05-20T07:12:45.474Z,93.43
2019-05-20T07:17:48.951Z,94.09
2019-05-20T07:22:55.797Z,94.94
2019-05-20T07:27:57.515Z,100.00
2019-05-20T07:33:00.941Z,100.00
2019-05-20T07:38:04.431Z,99.47
2019-05-20T07:43:07.862Z,97.81
2019-05-20T07:48:11.539Z,98.42
2019-05-20T07:53:15.913Z,96.92
2019-05-20T07:58:22.207Z,99.37
2019-05-20T08:03:25.657Z,97.64
2019-05-20T08:08:29.103Z,98.28
2019-05-20T08:13:32.625Z,100.00
2019-05-20T08:18:36.107Z,99.58
2019-05-20T08:23:40.545Z,100.00
2019-05-20T08:28:44.014Z,100.00
2019-05-20T08:33:47.428Z,100.00
2019-05-20T08:38:50.870Z,100.00
2019-05-20T08:43:54.459Z,100.00
2019-05-20T08:48:57.879Z,100.00
2019-05-20T08:54:01.334Z,100.00
2019-05-20T08:59:04.787Z,100.00
2019-05-20T09:04:08.229Z,100.00
2019-05-20T09:09:12.505Z,100.00
2019-05-20T09:14:16.001Z,100.00
2019-05-20T09:19:19.425Z,100.00
2019-05-20T09:24:22.859Z,100.00
2019-05-20T09:29:26.275Z,100.00
2019-05-20T09:34:30.357Z,100.00
2019-05-20T09:39:33.786Z,100.00
2019-05-20T09:44:37.240Z,100.00
2019-05-20T09:49:40.666Z,98.08
2019-05-20T09:54:45.679Z,96.97
2019-05-20T09:59:49.185Z,97.04
2019-05-20T10:04:52.609Z,96.56
2019-05-20T10:09:56.050Z,94.23
2019-05-20T10:14:59.521Z,94.78
2019-05-20T10:20:03.034Z,94.99
2019-05-20T10:25:07.838Z,95.18
2019-05-20T10:30:12.290Z,92.00
2019-05-20T10:35:17.339Z,92.79
2019-05-20T10:40:20.932Z,91.10
2019-05-20T10:45:24.342Z,90.52
2019-05-20T10:50:27.784Z,90.58
2019-05-20T10:55:31.251Z,90.29
2019-05-20T11:00:34.646Z,89.59
2019-05-20T11:05:38.094Z,87.58
2019-05-20T11:10:41.532Z,86.99
2019-05-20T11:15:44.957Z,86.06
2019-05-20T11:20:48.418Z,83.45
2019-05-20T11:25:51.841Z,82.83
2019-05-20T11:30:55.272Z,82.95
2019-05-20T11:35:58.685Z,82.56
2019-05-20T11:41:02.144Z,83.53
2019-05-20T11:46:05.583Z,83.04
2019-05-20T11:51:09.000Z,82.30
2019-05-20T11:56:12.442Z,81.27
2019-05-20T12:01:17.352Z,81.09
2019-05-20T12:06:20.858Z,79.29
2019-05-20T12:11:24.304Z,78.94
2019-05-20T12:16:27.721Z,78.46
2019-05-20T12:21:31.175Z,78.32
2019-05-20T12:26:34.608Z,79.51
2019-05-20T12:31:38.118Z,77.33
2019-05-20T12:36:41.574Z,77.97
2019-05-20T12:41:44.997Z,77.79
2019-05-20T12:46:48.464Z,76.59
2019-05-20T12:51:51.899Z,77.68
2019-05-20T12:56:55.319Z,78.86
2019-05-20T13:01:58.760Z,78.06
2019-05-20T13:07:02.187Z,77.21
2019-05-20T13:12:05.617Z,78.16
2019-05-20T13:17:09.035Z,76.66
2019-05-20T13:22:12.468Z,77.35
2019-05-20T13:27:15.901Z,76.50
2019-05-20T13:32:19.336Z,77.09
2019-05-20T13:37:22.771Z,75.73
2019-05-20T13:42:26.198Z,75.17
2019-05-20T13:47:29.664Z,73.39
2019-05-20T13:52:33.067Z,73.33
2019-05-20T13:57:36.486Z,73.58
2019-05-20T14:02:39.914Z,73.83
2019-05-20T14:07:43.370Z,76.19
2019-05-20T14:12:46.821Z,76.19
2019-05-20T14:17:50.263Z,75.72
2019-05-20T14:22:53.687Z,75.94
2019-05-20T14:27:57.138Z,75.62
2019-05-20T14:33:01.138Z,75.47
2019-05-20T14:38:04.572Z,74.97
2019-05-20T14:43:08.026Z,75.95
2019-05-20T14:48:11.478Z,76.24
2019-05-20T14:53:14.877Z,75.16
2019-05-20T14:58:18.305Z,73.30
2019-05-20T15:03:21.729Z,73.88
2019-05-20T15:08:25.233Z,73.16
2019-05-20T15:13:28.725Z,72.19
2019-05-20T15:18:32.137Z,72.24
2019-05-20T15:23:35.582Z,71.91
2019-05-20T15:28:39.061Z,71.79
2019-05-20T15:33:42.482Z,71.41
2019-05-20T15:38:45.909Z,72.00
2019-05-20T15:43:49.328Z,72.85
2019-05-20T15:48:52.776Z,73.29
2019-05-20T15:53:56.217Z,74.07
2019-05-20T15:58:59.678Z,74.99
2019-05-20T16:04:03.114Z,74.93
2019-05-20T16:09:06.834Z,74.80
2019-05-20T16:14:10.288Z,74.86
2019-05-20T16:19:13.691Z,71.74
2019-05-20T16:24:17.126Z,72.16
2019-05-20T16:29:20.611Z,72.16
2019-05-20T16:34:24.145Z,71.12
2019-05-20T16:39:30.792Z,70.14
2019-05-20T16:44:32.748Z,69.90
2019-05-20T16:49:36.191Z,69.90
2019-05-20T16:54:39.622Z,70.90
2019-05-20T16:59:43.062Z,71.03
2019-05-20T17:04:46.466Z,72.64
2019-05-20T17:09:49.905Z,73.05
2019-05-20T17:14:53.345Z,73.54
2019-05-20T17:19:56.772Z,73.32
2019-05-20T17:25:00.210Z,73.69
2019-05-20T17:30:05.196Z,74.37
2019-05-20T17:35:08.695Z,73.93
2019-05-20T17:40:12.562Z,74.80
2019-05-20T17:45:17.226Z,75.08
2019-05-20T17:50:22.110Z,75.50
2019-05-20T17:55:25.874Z,76.06
2019-05-20T18:00:29.767Z,75.36
2019-05-20T18:05:33.285Z,76.34
2019-05-20T18:10:36.778Z,76.76
2019-05-20T18:15:40.218Z,78.11
2019-05-20T18:20:43.712Z,78.43
2019-05-20T18:25:47.142Z,79.70
2019-05-20T18:30:51.449Z,80.53
2019-05-20T18:35:54.882Z,82.23
2019-05-20T18:40:58.306Z,82.81
2019-05-20T18:46:01.735Z,83.40
2019-05-20T18:51:05.166Z,83.12
2019-05-20T18:56:08.594Z,83.97
2019-05-20T19:01:12.038Z,84.21
2019-05-20T19:06:15.487Z,84.45
2019-05-20T19:11:18.983Z,84.66
2019-05-20T19:16:22.425Z,84.75
2019-05-20T19:21:25.891Z,83.91
2019-05-20T19:26:29.349Z,83.95
2019-05-20T19:31:32.805Z,83.20
2019-05-20T19:36:36.240Z,82.57
2019-05-20T19:41:39.663Z,82.92
2019-05-20T19:46:43.188Z,82.46
2019-05-20T19:51:46.639Z,82.62
2019-05-20T19:56:50.062Z,82.54
2019-05-20T20:01:54.525Z,82.73
2019-05-20T20:06:57.942Z,83.17
2019-05-20T20:12:01.372Z,82.97
2019-05-20T20:17:04.829Z,83.20
2019-05-20T20:22:08.383Z,83.30
2019-05-20T20:27:11.797Z,84.04
2019-05-20T20:32:15.223Z,83.96
2019-05-20T20:37:18.655Z,83.93
2019-05-20T20:42:22.114Z,84.72
2019-05-20T20:47:39.374Z,84.94
2019-05-20T20:52:32.542Z,85.25
2019-05-20T20:57:36.164Z,85.17
2019-05-20T21:02:52.121Z,85.24
2019-05-20T21:07:44.744Z,86.47
2019-05-20T21:12:48.161Z,86.42
2019-05-20T21:17:51.630Z,86.86
2019-05-20T21:22:55.009Z,86.59
2019-05-20T21:27:58.509Z,86.02
2019-05-20T21:33:09.166Z,85.91
2019-05-20T21:38:07.067Z,86.97
2019-05-20T21:43:10.513Z,87.99
2019-05-20T21:48:13.929Z,88.17
2019-05-20T21:53:17.360Z,89.04
2019-05-20T21:58:20.796Z,89.41
2019-05-20T22:03:25.368Z,88.70
2019-05-20T22:08:28.989Z,90.21
2019-05-20T22:13:32.437Z,91.00
2019-05-20T22:18:35.868Z,91.86
2019-05-20T22:23:49.811Z,93.71
2019-05-20T22:28:53.225Z,94.95
2019-05-20T22:33:56.660Z,96.19
2019-05-20T22:39:00.128Z,98.33
2019-05-20T22:44:03.569Z,97.56
2019-05-20T22:49:06.999Z,99.65
2019-05-20T22:54:10.621Z,100.00
2019-05-20T22:59:14.232Z,100.00
2019-05-20T23:04:17.656Z,100.00
2019-05-20T23:09:21.123Z,100.00
2019-05-20T23:14:25.257Z,100.00
2019-05-20T23:19:28.728Z,100.00
2019-05-20T23:24:32.117Z,100.00
2019-05-20T23:29:35.540Z,100.00
2019-05-20T23:34:39.006Z,100.00
2019-05-20T23:39:42.479Z,100.00
2019-05-20T23:44:45.912Z,100.00
2019-05-20T23:49:49.349Z,100.00
2019-05-20T23:55:37.870Z,100.00
